KEBS/EBS METAR and TAF weather

Enter ICAO airport designator
Station Type Date Time Source
KEBS METAR 2019/12/06 03:55 UTC NOAA

KEBS 060355Z AUTO 34020KT 10SM BKN012 BKN020 M00/M01 A3006 RMK AO2


Station Type Date Time Source
KEBS Decoded METAR 2019/12/06 03:55 UTC NOAA

Webster City, IA, United States (KEBS) 42-26N 093-52W
Dec 05, 2019 - 10:55 PM EST / 2019.12.06 0355 UTC
Wind: from the NNW (340 degrees) at 23 MPH (20 KT):0
Visibility: 10 mile(s):0
Sky conditions: mostly cloudy
Temperature: 32 F (0 C)
Windchill: 19 F (-7 C):1
Dew Point: 30 F (-1 C)
Relative Humidity: 92%
Pressure (altimeter): 30.06 in. Hg (1017 hPa)
ob: KEBS 060355Z AUTO 34020KT 10SM BKN012 BKN020 M00/M01 A3006 RMK AO2
cycle: 4

Station Type Date Time Source
KEBS TAF UTC NOAA

Error!

Example: see airport list